AGGH/HIR METAR and TAF weather

Enter ICAO airport designator
Station Type Date Time Source
AGGH METAR 2020/04/06 09:00 UTC NOAA

AGGH 060900Z 29004KT 9999 FEW016 FEW017CB SCT030 BKN100 27/25 Q1007


Station Type Date Time Source
AGGH Decoded METAR 2020/04/06 09:00 UTC NOAA

Honiara / Henderson, Solomon Islands (AGGH) 09-25S 160-03E 9M
Apr 06, 2020 - 05:00 AM EDT / 2020.04.06 0900 UTC
Wind: from the WNW (290 degrees) at 5 MPH (4 KT):0
Visibility: greater than 7 mile(s):0
Sky conditions: mostly cloudy
Weather: Cumulonimbus clouds observed
Temperature: 80 F (27 C)
Dew Point: 77 F (25 C)
Relative Humidity: 88%
Pressure (altimeter): 29.74 in. Hg (1007 hPa)
ob: AGGH 060900Z 29004KT 9999 FEW016 FEW017CB SCT030 BKN100 27/25 Q1007
cycle: 9

Station Type Date Time Source
AGGH TAF 2020/04/05 18:45 UTC NOAA

TAF TAF AGGH 051720Z 0518/0618 27012KT 9999 SCT017 BKN100 PROB40 INTER 0600/0610 5000 SCT016 BKN025 T 25 27 30 31 Q 1006 1008 1008 1006

Example: see airport list